Time;durP1;ratioP1;P1;durP2;ratioP2;P2;SDS_P1;SDS_P2;PMS_P1;PMS_P2;Temp;Humidity;BMP_temperature;BMP_pressure;BME280_temperature;BME280_humidity;BME280_pressure;Samples;Min_cycle;Max_cycle;Signal;HPM_P1;HPM_P2
2021/10/04 00:00:21;;;;;;;0.00;0.00;;;;;;;;;;5049935;28;20200;-64
2021/10/04 00:02:50;;;;;;;0.10;0.10;;;;;;;;;;5043426;28;20401;-64
2021/10/04 00:05:18;;;;;;;0.00;0.00;;;;;;;;;;5049088;28;20199;-64
2021/10/04 00:07:45;;;;;;;0.00;0.00;;;;;;;;;;5051048;28;20250;-64
2021/10/04 00:10:14;;;;;;;0.20;0.00;;;;;;;;;;5048997;28;20258;-65
2021/10/04 00:12:41;;;;;;;0.07;0.07;;;;;;;;;;5050468;28;20227;-64
2021/10/04 00:15:09;;;;;;;0.00;0.00;;;;;;;;;;5048791;28;20203;-65
2021/10/04 00:17:37;;;;;;;0.00;0.00;;;;;;;;;;5051465;28;20204;-64
2021/10/04 00:20:07;;;;;;;0.10;0.10;;;;;;;;;;5048504;28;20203;-65
2021/10/04 00:22:34;;;;;;;0.30;0.30;;;;;;;;;;5041709;28;20203;-64
2021/10/04 00:25:02;;;;;;;0.10;0.10;;;;;;;;;;5049366;28;20203;-64
2021/10/04 00:27:29;;;;;;;0.00;0.00;;;;;;;;;;5039217;28;20208;-64
2021/10/04 00:29:57;;;;;;;0.00;0.00;;;;;;;;;;5045644;28;20203;-64
2021/10/04 00:32:25;;;;;;;0.00;0.00;;;;;;;;;;5048532;28;20223;-64
2021/10/04 00:34:52;;;;;;;0.00;0.00;;;;;;;;;;5048718;28;20290;-64
2021/10/04 00:37:21;;;;;;;0.20;0.13;;;;;;;;;;5050327;28;20569;-64
2021/10/04 00:39:49;;;;;;;0.00;0.00;;;;;;;;;;5047415;28;20576;-64
2021/10/04 00:42:16;;;;;;;0.67;0.20;;;;;;;;;;5046613;28;20361;-65
2021/10/04 00:44:44;;;;;;;0.00;0.00;;;;;;;;;;5046998;28;20200;-65
2021/10/04 00:47:11;;;;;;;0.17;0.17;;;;;;;;;;5048908;28;20231;-65
2021/10/04 00:49:39;;;;;;;0.00;0.00;;;;;;;;;;5047631;28;20664;-65
2021/10/04 00:52:06;;;;;;;0.00;0.00;;;;;;;;;;5048790;28;20239;-65
2021/10/04 00:54:35;;;;;;;0.03;0.03;;;;;;;;;;5048433;28;20218;-65
2021/10/04 00:57:03;;;;;;;0.00;0.00;;;;;;;;;;5048839;28;20207;-65
2021/10/04 00:59:30;;;;;;;0.00;0.00;;;;;;;;;;5046572;28;20210;-65
2021/10/04 01:01:58;;;;;;;0.00;0.00;;;;;;;;;;5050619;28;20202;-64
2021/10/04 01:04:26;;;;;;;0.00;0.00;;;;;;;;;;5047485;28;20203;-64
2021/10/04 01:06:54;;;;;;;0.00;0.00;;;;;;;;;;5048165;28;20281;-65
2021/10/04 01:09:22;;;;;;;0.00;0.00;;;;;;;;;;5050042;28;20249;-65
2021/10/04 01:11:50;;;;;;;0.00;0.00;;;;;;;;;;5047806;28;20210;-65
2021/10/04 01:14:18;;;;;;;0.37;0.37;;;;;;;;;;5040679;28;20210;-62
2021/10/04 01:16:45;;;;;;;0.03;0.03;;;;;;;;;;5043868;28;20394;-65
2021/10/04 01:19:13;;;;;;;0.00;0.00;;;;;;;;;;5039484;28;20214;-65
2021/10/04 01:21:42;;;;;;;2.20;0.27;;;;;;;;;;5048353;28;20204;-65
2021/10/04 01:24:10;;;;;;;0.00;0.00;;;;;;;;;;5046522;28;20199;-66
2021/10/04 01:26:45;;;;;;;0.10;0.10;;;;;;;;;;5042439;28;20211;-65
2021/10/04 01:29:22;;;;;;;0.03;0.03;;;;;;;;;;5040902;28;20237;-67
2021/10/04 01:31:50;;;;;;;0.00;0.00;;;;;;;;;;5041833;28;21063;-63
2021/10/04 01:34:17;;;;;;;0.07;0.07;;;;;;;;;;5037185;28;20222;-65
2021/10/04 01:36:46;;;;;;;0.00;0.00;;;;;;;;;;5043586;28;20202;-63
2021/10/04 01:39:20;;;;;;;0.00;0.00;;;;;;;;;;5043675;28;20199;-66
2021/10/04 01:41:49;;;;;;;1.20;0.50;;;;;;;;;;5043664;28;20207;-66
2021/10/04 01:44:16;;;;;;;0.00;0.00;;;;;;;;;;5042472;28;20203;-62
2021/10/04 01:46:44;;;;;;;0.00;0.00;;;;;;;;;;5043416;28;20204;-65
2021/10/04 01:49:11;;;;;;;0.10;0.10;;;;;;;;;;5044584;28;20691;-65
2021/10/04 01:51:39;;;;;;;0.00;0.00;;;;;;;;;;5045413;28;20661;-67
2021/10/04 01:54:07;;;;;;;0.00;0.00;;;;;;;;;;5044224;28;20239;-65
2021/10/04 01:56:35;;;;;;;0.47;0.47;;;;;;;;;;5044685;28;20195;-63
2021/10/04 01:59:12;;;;;;;0.00;0.00;;;;;;;;;;5044318;28;20219;-65
2021/10/04 02:01:58;;;;;;;0.00;0.00;;;;;;;;;;5045188;28;20210;-67
2021/10/04 02:04:47;;;;;;;0.00;0.00;;;;;;;;;;5044080;28;20652;-65
2021/10/04 02:07:28;;;;;;;0.03;0.03;;;;;;;;;;5044822;28;20240;-65
2021/10/04 02:10:07;;;;;;;0.00;0.00;;;;;;;;;;5035912;28;20582;-67
2021/10/04 02:12:43;;;;;;;0.10;0.10;;;;;;;;;;5042565;28;20234;-65
2021/10/04 02:15:15;;;;;;;0.00;0.00;;;;;;;;;;5042350;28;20653;-65
2021/10/04 02:17:48;;;;;;;0.00;0.00;;;;;;;;;;5043693;28;20546;-64
2021/10/04 02:20:24;;;;;;;0.10;0.10;;;;;;;;;;5045540;28;20277;-65
2021/10/04 02:23:05;;;;;;;0.00;0.00;;;;;;;;;;5044034;28;20203;-66
2021/10/04 02:25:46;;;;;;;0.00;0.00;;;;;;;;;;5041860;28;20199;-64
2021/10/04 02:28:21;;;;;;;0.00;0.00;;;;;;;;;;5042390;28;20322;-67
2021/10/04 02:30:51;;;;;;;0.10;0.10;;;;;;;;;;5040804;28;20678;-65
2021/10/04 02:33:19;;;;;;;0.00;0.00;;;;;;;;;;5044967;28;20844;-65
2021/10/04 02:35:46;;;;;;;0.00;0.00;;;;;;;;;;5041240;28;20227;-65
2021/10/04 02:38:14;;;;;;;0.07;0.00;;;;;;;;;;5042012;28;20219;-65
2021/10/04 02:40:51;;;;;;;0.10;0.10;;;;;;;;;;5039379;28;20200;-65
2021/10/04 02:43:20;;;;;;;0.00;0.00;;;;;;;;;;5039616;28;20214;-65
2021/10/04 02:45:48;;;;;;;0.10;0.10;;;;;;;;;;5042022;28;20206;-65
2021/10/04 02:48:18;;;;;;;0.40;0.37;;;;;;;;;;5042233;28;20569;-65
2021/10/04 02:50:46;;;;;;;0.10;0.10;;;;;;;;;;5043604;28;20311;-64
2021/10/04 02:53:13;;;;;;;0.00;0.00;;;;;;;;;;5041764;28;20568;-65
2021/10/04 02:55:41;;;;;;;0.00;0.00;;;;;;;;;;5043211;28;20215;-65
2021/10/04 02:58:10;;;;;;;2.03;0.33;;;;;;;;;;5042138;28;20648;-64
2021/10/04 03:00:39;;;;;;;0.00;0.00;;;;;;;;;;5042385;28;20203;-64
2021/10/04 03:03:07;;;;;;;0.00;0.00;;;;;;;;;;5044711;28;20931;-65
2021/10/04 03:05:35;;;;;;;0.23;0.23;;;;;;;;;;5040617;28;20297;-65
2021/10/04 03:08:03;;;;;;;0.00;0.00;;;;;;;;;;5040847;28;20294;-64
2021/10/04 03:10:30;;;;;;;0.00;0.00;;;;;;;;;;5043034;28;20918;-66
2021/10/04 03:12:58;;;;;;;0.00;0.00;;;;;;;;;;5043449;28;20584;-65
2021/10/04 03:15:27;;;;;;;0.07;0.00;;;;;;;;;;5043406;28;20322;-64
2021/10/04 03:17:54;;;;;;;0.00;0.00;;;;;;;;;;5043353;28;20191;-65
2021/10/04 03:20:22;;;;;;;0.20;0.20;;;;;;;;;;5046197;28;20203;-65
2021/10/04 03:22:53;;;;;;;0.00;0.00;;;;;;;;;;5044281;28;20688;-64
2021/10/04 03:25:21;;;;;;;0.00;0.00;;;;;;;;;;5048061;28;20319;-65
2021/10/04 03:27:53;;;;;;;0.00;0.00;;;;;;;;;;5041886;28;20200;-65
2021/10/04 03:30:23;;;;;;;0.00;0.00;;;;;;;;;;5042320;28;20204;-65
2021/10/04 03:32:52;;;;;;;0.00;0.00;;;;;;;;;;5041771;28;20227;-65
2021/10/04 03:35:20;;;;;;;0.00;0.00;;;;;;;;;;5042392;28;20676;-65
2021/10/04 03:37:48;;;;;;;0.00;0.00;;;;;;;;;;5042896;28;20577;-65
2021/10/04 03:40:15;;;;;;;0.10;0.10;;;;;;;;;;5041530;28;20668;-64
2021/10/04 03:42:45;;;;;;;2.17;1.20;;;;;;;;;;5044011;28;20207;-64
2021/10/04 03:45:14;;;;;;;0.57;0.57;;;;;;;;;;5043219;28;20206;-66
2021/10/04 03:47:42;;;;;;;0.57;0.27;;;;;;;;;;5042181;28;20211;-65
2021/10/04 03:50:12;;;;;;;0.00;0.00;;;;;;;;;;5041271;28;20199;-65
2021/10/04 03:52:39;;;;;;;0.00;0.00;;;;;;;;;;5041643;28;20209;-66
2021/10/04 03:55:10;;;;;;;0.00;0.00;;;;;;;;;;5038874;28;20200;-65
2021/10/04 03:57:39;;;;;;;0.00;0.00;;;;;;;;;;5040924;28;20206;-65
2021/10/04 04:00:09;;;;;;;0.00;0.00;;;;;;;;;;5042716;28;20199;-65
2021/10/04 04:02:37;;;;;;;0.00;0.00;;;;;;;;;;5040995;28;20204;-64
2021/10/04 04:05:04;;;;;;;0.10;0.10;;;;;;;;;;5041741;28;20200;-65
2021/10/04 04:07:33;;;;;;;0.00;0.00;;;;;;;;;;5043206;28;20269;-65
2021/10/04 04:10:00;;;;;;;0.33;0.20;;;;;;;;;;5038532;28;20196;-65
2021/10/04 04:12:28;;;;;;;0.00;0.00;;;;;;;;;;5040468;28;20576;-64
2021/10/04 04:14:55;;;;;;;0.00;0.00;;;;;;;;;;5041004;28;20252;-64
2021/10/04 04:18:04;;;;;;;0.37;0.37;;;;;;;;;;5043113;28;20196;-64
2021/10/04 04:20:32;;;;;;;0.00;0.00;;;;;;;;;;5041345;28;20200;-64
2021/10/04 04:23:01;;;;;;;0.00;0.00;;;;;;;;;;5042077;28;20656;-65
2021/10/04 04:25:31;;;;;;;0.00;0.00;;;;;;;;;;5044291;28;20203;-65
2021/10/04 04:28:00;;;;;;;0.00;0.00;;;;;;;;;;5042715;28;20262;-65
2021/10/04 04:30:30;;;;;;;0.00;0.00;;;;;;;;;;5041542;28;20215;-67
2021/10/04 04:32:59;;;;;;;0.00;0.00;;;;;;;;;;5041416;28;20195;-64
2021/10/04 04:35:27;;;;;;;0.10;0.10;;;;;;;;;;5042480;28;20668;-66
2021/10/04 04:37:56;;;;;;;0.00;0.00;;;;;;;;;;5041785;28;20208;-66
2021/10/04 04:40:25;;;;;;;0.00;0.00;;;;;;;;;;5050139;28;20231;-65
2021/10/04 04:42:53;;;;;;;0.00;0.00;;;;;;;;;;5039902;28;21039;-66
2021/10/04 04:45:21;;;;;;;0.00;0.00;;;;;;;;;;5046254;28;20196;-65
2021/10/04 04:47:51;;;;;;;0.00;0.00;;;;;;;;;;5051034;28;20200;-65
2021/10/04 04:50:20;;;;;;;0.00;0.00;;;;;;;;;;5045850;28;20215;-65
2021/10/04 04:52:49;;;;;;;0.00;0.00;;;;;;;;;;5048842;28;20649;-65
2021/10/04 04:55:18;;;;;;;0.00;0.00;;;;;;;;;;5049409;28;20254;-66
2021/10/04 04:57:47;;;;;;;0.00;0.00;;;;;;;;;;5050223;28;20229;-65
2021/10/04 05:00:18;;;;;;;0.00;0.00;;;;;;;;;;5042470;28;20203;-63
2021/10/04 05:02:46;;;;;;;0.00;0.00;;;;;;;;;;5044063;28;20214;-65
2021/10/04 05:05:15;;;;;;;0.00;0.00;;;;;;;;;;5047249;28;20214;-67
2021/10/04 05:07:42;;;;;;;0.00;0.00;;;;;;;;;;5047292;28;20227;-65
2021/10/04 05:10:10;;;;;;;0.10;0.10;;;;;;;;;;5048030;28;20715;-65
2021/10/04 05:12:37;;;;;;;0.00;0.00;;;;;;;;;;5045188;28;20207;-65
2021/10/04 05:15:07;;;;;;;0.00;0.00;;;;;;;;;;5042874;28;20705;-65
2021/10/04 05:17:35;;;;;;;0.10;0.10;;;;;;;;;;5042933;28;20214;-65
2021/10/04 05:20:02;;;;;;;0.00;0.00;;;;;;;;;;5046581;28;20204;-63
2021/10/04 05:22:30;;;;;;;0.00;0.00;;;;;;;;;;5046220;28;20596;-66
2021/10/04 05:24:57;;;;;;;0.00;0.00;;;;;;;;;;5039557;28;20777;-66
2021/10/04 05:27:24;;;;;;;0.00;0.00;;;;;;;;;;5046850;28;20669;-62
2021/10/04 05:29:52;;;;;;;0.10;0.10;;;;;;;;;;5042567;28;20207;-65
2021/10/04 05:32:21;;;;;;;0.30;0.30;;;;;;;;;;5048646;28;20210;-65
2021/10/04 05:34:48;;;;;;;0.00;0.00;;;;;;;;;;5048438;28;20242;-64
2021/10/04 05:37:16;;;;;;;0.00;0.00;;;;;;;;;;5043485;28;20290;-65
2021/10/04 05:39:43;;;;;;;0.00;0.00;;;;;;;;;;5046229;28;20204;-64
2021/10/04 05:42:11;;;;;;;0.43;0.33;;;;;;;;;;5044569;28;20222;-65
2021/10/04 05:44:38;;;;;;;0.00;0.00;;;;;;;;;;5039770;28;20271;-64
2021/10/04 05:47:07;;;;;;;0.00;0.00;;;;;;;;;;5043751;28;20210;-64
2021/10/04 05:49:36;;;;;;;0.00;0.00;;;;;;;;;;5041668;28;20212;-64
2021/10/04 05:52:04;;;;;;;0.20;0.20;;;;;;;;;;5042714;28;20208;-65
2021/10/04 05:54:31;;;;;;;0.20;0.20;;;;;;;;;;5039194;28;20233;-65
2021/10/04 05:56:59;;;;;;;0.00;0.00;;;;;;;;;;5035255;28;22346;-66
2021/10/04 05:59:26;;;;;;;0.00;0.00;;;;;;;;;;5035992;28;20685;-66
2021/10/04 06:01:53;;;;;;;0.00;0.00;;;;;;;;;;5033801;28;20663;-66
2021/10/04 06:04:21;;;;;;;0.00;0.00;;;;;;;;;;5032792;28;20211;-65
2021/10/04 06:06:50;;;;;;;0.73;0.30;;;;;;;;;;5031966;28;20793;-65
2021/10/04 06:09:17;;;;;;;0.00;0.00;;;;;;;;;;5033480;28;20205;-68
2021/10/04 06:11:45;;;;;;;0.00;0.00;;;;;;;;;;5037264;28;20300;-65
2021/10/04 06:14:12;;;;;;;0.00;0.00;;;;;;;;;;5032850;28;20231;-66
2021/10/04 06:16:40;;;;;;;0.23;0.23;;;;;;;;;;5035516;28;20205;-66
2021/10/04 06:19:07;;;;;;;0.00;0.00;;;;;;;;;;5033958;28;21312;-66
2021/10/04 06:21:35;;;;;;;0.67;0.17;;;;;;;;;;5039951;28;20211;-65
2021/10/04 06:24:03;;;;;;;0.47;0.47;;;;;;;;;;5044979;28;20204;-62
2021/10/04 06:26:31;;;;;;;0.00;0.00;;;;;;;;;;5044324;28;20211;-66
2021/10/04 06:28:58;;;;;;;0.10;0.00;;;;;;;;;;5044811;28;20211;-66
2021/10/04 06:31:26;;;;;;;0.20;0.20;;;;;;;;;;5042154;28;20283;-65
2021/10/04 06:33:53;;;;;;;0.00;0.00;;;;;;;;;;5042677;28;20227;-65
2021/10/04 06:36:21;;;;;;;0.03;0.03;;;;;;;;;;5043969;28;20215;-66
2021/10/04 06:38:48;;;;;;;0.10;0.03;;;;;;;;;;5042175;28;20372;-65
2021/10/04 06:41:17;;;;;;;0.37;0.37;;;;;;;;;;5041880;28;20212;-63
2021/10/04 06:43:45;;;;;;;0.40;0.27;;;;;;;;;;5038660;28;20211;-65
2021/10/04 06:46:12;;;;;;;0.00;0.00;;;;;;;;;;5038779;28;20207;-67
2021/10/04 06:48:40;;;;;;;1.03;0.50;;;;;;;;;;5038374;28;20560;-66
2021/10/04 06:51:08;;;;;;;0.00;0.00;;;;;;;;;;5038263;28;20218;-65
2021/10/04 06:53:35;;;;;;;0.00;0.00;;;;;;;;;;5038412;28;20661;-64
2021/10/04 06:56:03;;;;;;;0.13;0.13;;;;;;;;;;5048700;28;20204;-65
2021/10/04 06:58:31;;;;;;;0.00;0.00;;;;;;;;;;5048030;28;20204;-64
2021/10/04 07:00:59;;;;;;;8.47;0.20;;;;;;;;;;5049489;28;20208;-63
2021/10/04 07:03:26;;;;;;;0.00;0.00;;;;;;;;;;5039044;28;20691;-66
2021/10/04 07:05:55;;;;;;;0.17;0.17;;;;;;;;;;5040140;28;21517;-65
2021/10/04 07:08:23;;;;;;;0.20;0.20;;;;;;;;;;5040469;28;20253;-64
2021/10/04 07:10:51;;;;;;;0.20;0.20;;;;;;;;;;5040315;28;20208;-65
2021/10/04 07:13:18;;;;;;;0.00;0.00;;;;;;;;;;5041504;28;21595;-64
2021/10/04 07:15:47;;;;;;;0.10;0.00;;;;;;;;;;5043029;28;20257;-64
2021/10/04 07:18:14;;;;;;;0.40;0.40;;;;;;;;;;5039081;28;20302;-67
2021/10/04 07:20:42;;;;;;;0.30;0.30;;;;;;;;;;5042579;28;20208;-67
2021/10/04 07:23:09;;;;;;;0.27;0.27;;;;;;;;;;5038709;28;20192;-65
2021/10/04 07:25:37;;;;;;;0.60;0.43;;;;;;;;;;5044583;28;20295;-65
2021/10/04 07:28:05;;;;;;;0.00;0.00;;;;;;;;;;5051233;28;20204;-66
2021/10/04 07:30:34;;;;;;;0.33;0.33;;;;;;;;;;5050962;28;20278;-65
2021/10/04 07:33:03;;;;;;;0.00;0.00;;;;;;;;;;5047166;28;20596;-65
2021/10/04 07:35:30;;;;;;;0.00;0.00;;;;;;;;;;5050623;28;20235;-65
2021/10/04 07:37:59;;;;;;;0.00;0.00;;;;;;;;;;5040712;28;20201;-66
2021/10/04 07:40:26;;;;;;;0.03;0.03;;;;;;;;;;5047797;28;20684;-65
2021/10/04 07:42:53;;;;;;;0.00;0.00;;;;;;;;;;5047442;28;20211;-66
2021/10/04 07:45:21;;;;;;;0.87;0.40;;;;;;;;;;5038621;28;20204;-66
2021/10/04 07:47:50;;;;;;;0.00;0.00;;;;;;;;;;5037063;28;20214;-65
2021/10/04 07:50:19;;;;;;;0.00;0.00;;;;;;;;;;5038581;28;20629;-66
2021/10/04 07:52:47;;;;;;;0.20;0.10;;;;;;;;;;5040344;28;20208;-64
2021/10/04 07:55:15;;;;;;;0.00;0.00;;;;;;;;;;5042099;28;20262;-63
2021/10/04 07:57:44;;;;;;;0.00;0.00;;;;;;;;;;5050279;28;20681;-64
2021/10/04 08:00:12;;;;;;;0.07;0.07;;;;;;;;;;5042292;28;20213;-64
2021/10/04 08:02:39;;;;;;;0.00;0.00;;;;;;;;;;5050420;28;20200;-64
2021/10/04 08:05:07;;;;;;;0.50;0.20;;;;;;;;;;5048855;28;20199;-64
2021/10/04 08:07:36;;;;;;;0.00;0.00;;;;;;;;;;5046294;28;20325;-65
2021/10/04 08:10:04;;;;;;;0.00;0.00;;;;;;;;;;5040883;28;20688;-64
2021/10/04 08:12:31;;;;;;;0.00;0.00;;;;;;;;;;5050808;28;20687;-64
2021/10/04 08:14:59;;;;;;;4.00;2.10;;;;;;;;;;5050777;28;20223;-64
2021/10/04 08:17:27;;;;;;;0.43;0.03;;;;;;;;;;5047137;28;20206;-65
2021/10/04 08:19:54;;;;;;;0.53;0.53;;;;;;;;;;5049025;28;20199;-64
2021/10/04 08:22:22;;;;;;;0.00;0.00;;;;;;;;;;5050703;28;20200;-63
2021/10/04 08:24:51;;;;;;;0.00;0.00;;;;;;;;;;5050400;28;20215;-64
2021/10/04 08:27:18;;;;;;;0.40;0.40;;;;;;;;;;5045852;28;20981;-64
2021/10/04 08:29:46;;;;;;;0.10;0.10;;;;;;;;;;5043960;28;20814;-65
2021/10/04 08:32:13;;;;;;;0.40;0.33;;;;;;;;;;5036688;28;20215;-67
2021/10/04 08:34:41;;;;;;;0.10;0.10;;;;;;;;;;5048230;28;20262;-65
2021/10/04 08:37:08;;;;;;;0.00;0.00;;;;;;;;;;5041393;28;20208;-67
2021/10/04 08:39:36;;;;;;;0.10;0.10;;;;;;;;;;5037872;28;20208;-69
2021/10/04 08:42:05;;;;;;;4.80;0.77;;;;;;;;;;5040369;28;20204;-65
2021/10/04 08:44:33;;;;;;;0.40;0.40;;;;;;;;;;5037102;28;20216;-67
2021/10/04 08:47:00;;;;;;;0.00;0.00;;;;;;;;;;5036384;28;20204;-65
2021/10/04 08:49:32;;;;;;;0.00;0.00;;;;;;;;;;5038263;28;20587;-66
2021/10/04 08:52:01;;;;;;;0.00;0.00;;;;;;;;;;5039459;28;20618;-66
2021/10/04 08:54:29;;;;;;;0.17;0.10;;;;;;;;;;5039696;28;20627;-65
2021/10/04 08:56:59;;;;;;;0.00;0.00;;;;;;;;;;5039502;28;20291;-67
2021/10/04 08:59:28;;;;;;;0.00;0.00;;;;;;;;;;5037137;28;20295;-66
2021/10/04 09:02:14;;;;;;;0.00;0.00;;;;;;;;;;5038878;28;20197;-66
2021/10/04 09:04:41;;;;;;;0.17;0.17;;;;;;;;;;5039202;28;20214;-67
2021/10/04 09:07:09;;;;;;;0.00;0.00;;;;;;;;;;5039363;28;20216;-66
2021/10/04 09:09:36;;;;;;;0.00;0.00;;;;;;;;;;5049317;28;20207;-66
2021/10/04 09:12:04;;;;;;;0.00;0.00;;;;;;;;;;5037701;28;20217;-65
2021/10/04 09:14:33;;;;;;;0.00;0.00;;;;;;;;;;5038605;28;20553;-67
2021/10/04 09:17:01;;;;;;;0.00;0.00;;;;;;;;;;5037181;28;20661;-66
2021/10/04 09:19:30;;;;;;;0.67;0.40;;;;;;;;;;5039720;28;20217;-67
2021/10/04 09:22:11;;;;;;;0.00;0.00;;;;;;;;;;5037607;28;20294;-66
2021/10/04 09:24:39;;;;;;;0.33;0.30;;;;;;;;;;5036271;28;20291;-69
2021/10/04 09:27:22;;;;;;;2.83;0.70;;;;;;;;;;5036054;28;20195;-67
2021/10/04 09:29:51;;;;;;;0.00;0.00;;;;;;;;;;5037159;28;20200;-68
2021/10/04 09:32:23;;;;;;;0.00;0.00;;;;;;;;;;5035858;28;20561;-66
2021/10/04 09:34:50;;;;;;;0.23;0.23;;;;;;;;;;5038272;28;20231;-66
2021/10/04 09:37:26;;;;;;;0.33;0.33;;;;;;;;;;5036550;28;20211;-68
2021/10/04 09:39:53;;;;;;;1.20;0.30;;;;;;;;;;5036837;28;20199;-66
2021/10/04 09:42:22;;;;;;;0.27;0.20;;;;;;;;;;5037542;28;20204;-67
2021/10/04 09:44:58;;;;;;;0.53;0.43;;;;;;;;;;5039890;28;20543;-67
2021/10/04 09:47:27;;;;;;;0.00;0.00;;;;;;;;;;5044432;28;20307;-67
2021/10/04 09:49:56;;;;;;;0.10;0.10;;;;;;;;;;5035313;28;20309;-71
2021/10/04 09:52:38;;;;;;;1.33;0.50;;;;;;;;;;5043815;28;20208;-69
2021/10/04 09:55:26;;;;;;;0.00;0.00;;;;;;;;;;5042234;28;20576;-67
2021/10/04 09:58:01;;;;;;;0.00;0.00;;;;;;;;;;5037081;28;20226;-69
2021/10/04 10:00:41;;;;;;;0.00;0.00;;;;;;;;;;5046243;28;20210;-66
2021/10/04 10:03:09;;;;;;;0.00;0.00;;;;;;;;;;5054529;28;20294;-66
2021/10/04 10:05:38;;;;;;;0.00;0.00;;;;;;;;;;5052014;28;20204;-66
2021/10/04 10:08:06;;;;;;;37.33;1.87;;;;;;;;;;5051865;28;20223;-65
2021/10/04 10:10:34;;;;;;;0.10;0.00;;;;;;;;;;5052742;28;20211;-66
2021/10/04 10:13:01;;;;;;;1.70;0.87;;;;;;;;;;5057871;28;20195;-68
2021/10/04 10:15:29;;;;;;;3.23;0.70;;;;;;;;;;5052928;28;20246;-66
2021/10/04 10:18:03;;;;;;;2.17;0.60;;;;;;;;;;5051464;28;20203;-66
2021/10/04 10:20:31;;;;;;;0.30;0.30;;;;;;;;;;5052191;28;20203;-67
2021/10/04 10:22:59;;;;;;;0.20;0.20;;;;;;;;;;5041636;28;20618;-67
2021/10/04 10:25:27;;;;;;;0.33;0.27;;;;;;;;;;5038066;28;20212;-69
2021/10/04 10:27:54;;;;;;;0.07;0.07;;;;;;;;;;5040846;28;20207;-71
2021/10/04 10:30:23;;;;;;;0.00;0.00;;;;;;;;;;5047972;28;20203;-66
2021/10/04 10:32:51;;;;;;;0.00;0.00;;;;;;;;;;5039651;28;20207;-65
2021/10/04 10:35:40;;;;;;;0.50;0.50;;;;;;;;;;5047702;28;20219;-66
2021/10/04 10:38:08;;;;;;;0.43;0.43;;;;;;;;;;5052102;28;20215;-65
2021/10/04 10:40:35;;;;;;;0.07;0.07;;;;;;;;;;5044664;28;20677;-67
2021/10/04 10:43:04;;;;;;;0.10;0.10;;;;;;;;;;5060078;28;20206;-67
2021/10/04 10:45:39;;;;;;;0.00;0.00;;;;;;;;;;5042791;28;20216;-66
2021/10/04 10:48:07;;;;;;;0.10;0.10;;;;;;;;;;5040128;28;20672;-66
2021/10/04 10:50:37;;;;;;;0.00;0.00;;;;;;;;;;5042016;28;20222;-68
2021/10/04 10:53:06;;;;;;;0.00;0.00;;;;;;;;;;5040816;28;20681;-66
2021/10/04 10:55:35;;;;;;;0.00;0.00;;;;;;;;;;5038295;28;20238;-65
2021/10/04 10:58:04;;;;;;;0.63;0.57;;;;;;;;;;5045091;28;20509;-66
2021/10/04 11:00:33;;;;;;;0.00;0.00;;;;;;;;;;5052885;28;20203;-65
2021/10/04 11:03:02;;;;;;;0.00;0.00;;;;;;;;;;5045890;28;20191;-67
2021/10/04 11:05:48;;;;;;;0.13;0.13;;;;;;;;;;5046943;28;20196;-66
2021/10/04 11:08:17;;;;;;;0.00;0.00;;;;;;;;;;5050974;28;20696;-66
2021/10/04 11:11:03;;;;;;;0.00;0.00;;;;;;;;;;5052573;28;20279;-65
2021/10/04 11:13:32;;;;;;;0.10;0.10;;;;;;;;;;5052039;28;21027;-65
2021/10/04 11:16:00;;;;;;;0.00;0.00;;;;;;;;;;5051646;28;20227;-65
2021/10/04 11:18:36;;;;;;;2.70;0.27;;;;;;;;;;5057447;28;20207;-66
2021/10/04 11:21:06;;;;;;;0.00;0.00;;;;;;;;;;5052315;28;20474;-66
2021/10/04 11:23:34;;;;;;;0.20;0.20;;;;;;;;;;5054792;28;20214;-66
2021/10/04 11:26:02;;;;;;;0.40;0.30;;;;;;;;;;5052436;28;20192;-65
2021/10/04 11:28:39;;;;;;;1.50;0.40;;;;;;;;;;5051978;28;20208;-67
2021/10/04 11:31:07;;;;;;;0.00;0.00;;;;;;;;;;5052022;28;20203;-65
2021/10/04 11:33:37;;;;;;;0.00;0.00;;;;;;;;;;5051994;28;20207;-65
2021/10/04 11:36:06;;;;;;;0.00;0.00;;;;;;;;;;5052376;28;20579;-65
2021/10/04 11:38:36;;;;;;;0.47;0.10;;;;;;;;;;5049121;28;20204;-66
2021/10/04 11:41:04;;;;;;;0.10;0.10;;;;;;;;;;5042938;28;20224;-66
2021/10/04 11:43:36;;;;;;;0.00;0.00;;;;;;;;;;5050527;28;20204;-67
2021/10/04 11:46:15;;;;;;;0.10;0.10;;;;;;;;;;5052510;28;20195;-65
2021/10/04 11:48:43;;;;;;;0.67;0.20;;;;;;;;;;5038510;28;20354;-65
2021/10/04 11:51:15;;;;;;;0.00;0.00;;;;;;;;;;5042035;28;20212;-65
2021/10/04 11:53:45;;;;;;;0.00;0.00;;;;;;;;;;5039889;28;20204;-66
2021/10/04 11:56:14;;;;;;;0.00;0.00;;;;;;;;;;5040176;28;20318;-66
2021/10/04 11:58:49;;;;;;;1.13;0.30;;;;;;;;;;5045795;28;20677;-65
2021/10/04 12:01:27;;;;;;;0.07;0.07;;;;;;;;;;5043840;28;20231;-66
2021/10/04 12:04:00;;;;;;;0.00;0.00;;;;;;;;;;5044335;28;20199;-66
2021/10/04 12:06:29;;;;;;;0.00;0.00;;;;;;;;;;5051172;28;20227;-65
2021/10/04 12:08:58;;;;;;;0.10;0.10;;;;;;;;;;5051478;28;20255;-65
2021/10/04 12:11:25;;;;;;;0.43;0.43;;;;;;;;;;5050981;28;20209;-66
2021/10/04 12:13:53;;;;;;;0.03;0.00;;;;;;;;;;5050928;28;20221;-66
2021/10/04 12:16:22;;;;;;;0.35;0.15;;;;;;;;;;5040059;28;20238;-65
2021/10/04 12:18:50;;;;;;;0.00;0.00;;;;;;;;;;5052530;28;20676;-67
2021/10/04 12:21:19;;;;;;;0.00;0.00;;;;;;;;;;5058961;28;20212;-67
2021/10/04 12:23:47;;;;;;;0.10;0.10;;;;;;;;;;5042105;28;20249;-67
2021/10/04 12:26:16;;;;;;;0.05;0.05;;;;;;;;;;5051416;28;20218;-68
2021/10/04 12:28:45;;;;;;;0.10;0.10;;;;;;;;;;5050351;28;20196;-67
2021/10/04 12:31:30;;;;;;;0.00;0.00;;;;;;;;;;5050633;28;20204;-68
2021/10/04 12:33:57;;;;;;;0.00;0.00;;;;;;;;;;5049877;28;20227;-67
2021/10/04 12:36:31;;;;;;;0.10;0.10;;;;;;;;;;5062652;28;20265;-66
2021/10/04 12:38:59;;;;;;;0.00;0.00;;;;;;;;;;5051941;28;20208;-66
2021/10/04 12:41:41;;;;;;;0.00;0.00;;;;;;;;;;5049656;28;20207;-65
2021/10/04 12:44:12;;;;;;;0.00;0.00;;;;;;;;;;5051868;28;20204;-66
2021/10/04 12:46:39;;;;;;;0.00;0.00;;;;;;;;;;5061352;28;20247;-66
2021/10/04 12:49:19;;;;;;;0.50;0.43;;;;;;;;;;5051431;28;20563;-65
2021/10/04 12:51:46;;;;;;;0.00;0.00;;;;;;;;;;5044804;28;20639;-65
2021/10/04 12:54:14;;;;;;;0.00;0.00;;;;;;;;;;5060726;28;20567;-67
2021/10/04 12:56:51;;;;;;;0.00;0.00;;;;;;;;;;5050856;28;20231;-66
2021/10/04 12:59:19;;;;;;;0.00;0.00;;;;;;;;;;5048088;28;20210;-66
2021/10/04 13:01:50;;;;;;;0.00;0.00;;;;;;;;;;5049293;28;20611;-66
2021/10/04 13:04:18;;;;;;;0.00;0.00;;;;;;;;;;5034714;28;20207;-68
2021/10/04 13:06:45;;;;;;;0.13;0.10;;;;;;;;;;5049833;28;20257;-68
2021/10/04 13:09:13;;;;;;;0.30;0.13;;;;;;;;;;5051684;28;20295;-66
2021/10/04 13:11:47;;;;;;;0.32;0.32;;;;;;;;;;5043044;28;20207;-68
2021/10/04 13:14:14;;;;;;;1.27;0.15;;;;;;;;;;5036864;28;20218;-66
2021/10/04 13:16:42;;;;;;;0.00;0.00;;;;;;;;;;5038450;28;20243;-65
2021/10/04 13:19:09;;;;;;;0.00;0.00;;;;;;;;;;5035942;28;20200;-68
2021/10/04 13:21:37;;;;;;;0.00;0.00;;;;;;;;;;5043277;28;20204;-66
2021/10/04 13:24:05;;;;;;;0.00;0.00;;;;;;;;;;5048463;28;20200;-67
2021/10/04 13:26:33;;;;;;;0.00;0.00;;;;;;;;;;5041557;28;20223;-67
2021/10/04 13:29:02;;;;;;;2.13;0.32;;;;;;;;;;5037812;28;20734;-67
2021/10/04 13:31:30;;;;;;;0.00;0.00;;;;;;;;;;5035378;28;20208;-67
2021/10/04 13:33:57;;;;;;;0.00;0.00;;;;;;;;;;5039231;28;20774;-67
2021/10/04 13:36:25;;;;;;;0.00;0.00;;;;;;;;;;5036160;28;20227;-67
2021/10/04 13:38:53;;;;;;;0.03;0.03;;;;;;;;;;5038098;28;20195;-66
2021/10/04 13:41:20;;;;;;;0.00;0.00;;;;;;;;;;5037510;28;20203;-68
2021/10/04 13:43:48;;;;;;;0.80;0.52;;;;;;;;;;5037613;28;20662;-67
2021/10/04 13:46:17;;;;;;;0.25;0.25;;;;;;;;;;5039413;28;20211;-67
2021/10/04 13:48:45;;;;;;;0.00;0.00;;;;;;;;;;5038419;28;20565;-67
2021/10/04 13:51:12;;;;;;;0.00;0.00;;;;;;;;;;5038477;28;20219;-68
2021/10/04 13:53:40;;;;;;;0.15;0.10;;;;;;;;;;5037912;28;20668;-68
2021/10/04 13:56:07;;;;;;;0.00;0.00;;;;;;;;;;5038253;28;20231;-67
2021/10/04 13:58:36;;;;;;;0.00;0.00;;;;;;;;;;5035939;28;20745;-70
2021/10/04 14:01:04;;;;;;;0.00;0.00;;;;;;;;;;5037396;28;20211;-70
2021/10/04 14:03:33;;;;;;;0.00;0.00;;;;;;;;;;5039685;28;20196;-66
2021/10/04 14:06:00;;;;;;;0.00;0.00;;;;;;;;;;5036822;28;20513;-68
2021/10/04 14:08:28;;;;;;;1.25;1.23;;;;;;;;;;5037331;28;20235;-67
2021/10/04 14:10:55;;;;;;;0.00;0.00;;;;;;;;;;5037133;28;20204;-67
2021/10/04 14:13:23;;;;;;;0.00;0.00;;;;;;;;;;5040793;28;20661;-66
2021/10/04 14:15:50;;;;;;;0.00;0.00;;;;;;;;;;5036311;28;20584;-66
2021/10/04 14:18:17;;;;;;;0.00;0.00;;;;;;;;;;5037461;28;20204;-67
2021/10/04 14:20:46;;;;;;;0.00;0.00;;;;;;;;;;5036342;28;20219;-67
2021/10/04 14:23:14;;;;;;;0.00;0.00;;;;;;;;;;5038893;28;20216;-66
2021/10/04 14:25:42;;;;;;;0.00;0.00;;;;;;;;;;5035823;28;20207;-67
2021/10/04 14:28:09;;;;;;;0.00;0.00;;;;;;;;;;5040777;28;20227;-66
2021/10/04 14:30:37;;;;;;;0.00;0.00;;;;;;;;;;5037836;28;20689;-66
2021/10/04 14:33:04;;;;;;;0.40;0.07;;;;;;;;;;5043217;28;20200;-66
2021/10/04 14:35:32;;;;;;;0.00;0.00;;;;;;;;;;5041131;28;20208;-66
2021/10/04 14:38:00;;;;;;;2.10;0.57;;;;;;;;;;5038993;28;20763;-66
2021/10/04 14:40:28;;;;;;;0.20;0.10;;;;;;;;;;5041327;28;20227;-66
2021/10/04 14:42:56;;;;;;;0.00;0.00;;;;;;;;;;5047917;28;20233;-66
2021/10/04 14:45:23;;;;;;;0.00;0.00;;;;;;;;;;5049963;28;20207;-66
2021/10/04 14:47:51;;;;;;;0.00;0.00;;;;;;;;;;5041872;28;20736;-66
2021/10/04 14:50:19;;;;;;;0.10;0.10;;;;;;;;;;5044354;28;20204;-68
2021/10/04 14:52:46;;;;;;;0.00;0.00;;;;;;;;;;5040160;28;20288;-67
2021/10/04 14:55:15;;;;;;;0.33;0.33;;;;;;;;;;5039305;28;20291;-66